createdAt,value
2019-05-03T00:01:42.987Z,31.45
2019-05-03T00:04:13.370Z,29.80
2019-05-03T00:06:42.684Z,33.95
2019-05-03T00:09:12.991Z,35.03
2019-05-03T00:11:42.255Z,30.55
2019-05-03T00:14:12.429Z,31.57
2019-05-03T00:16:43.067Z,33.20
2019-05-03T00:19:12.708Z,35.03
2019-05-03T00:21:42.027Z,34.00
2019-05-03T00:24:11.918Z,32.98
2019-05-03T00:26:42.217Z,32.93
2019-05-03T00:29:12.629Z,30.92
2019-05-03T00:31:42.343Z,34.50
2019-05-03T00:34:28.707Z,31.80
2019-05-03T00:36:58.805Z,31.95
2019-05-03T00:39:42.427Z,32.75
2019-05-03T00:42:11.933Z,30.88
2019-05-03T00:44:42.213Z,31.68
2019-05-03T00:47:12.593Z,34.45
2019-05-03T00:49:42.684Z,32.33
2019-05-03T00:52:11.767Z,30.92
2019-05-03T00:54:42.225Z,32.08
2019-05-03T00:57:12.074Z,35.30
2019-05-03T00:59:42.044Z,33.15
2019-05-03T01:02:11.827Z,35.60
2019-05-03T01:04:42.566Z,31.48
2019-05-03T01:07:11.818Z,33.28
2019-05-03T01:09:42.301Z,31.23
2019-05-03T01:12:12.607Z,32.23
2019-05-03T01:14:43.538Z,31.00
2019-05-03T01:17:12.436Z,34.20
2019-05-03T01:19:42.678Z,34.90
2019-05-03T01:22:11.913Z,30.95
2019-05-03T01:24:42.681Z,36.50
2019-05-03T01:27:12.443Z,35.95
2019-05-03T01:29:42.474Z,34.10
2019-05-03T01:32:11.580Z,34.25
2019-05-03T01:34:41.648Z,34.53
2019-05-03T01:37:11.823Z,33.38
2019-05-03T01:39:42.148Z,34.53
2019-05-03T01:42:11.936Z,32.15
2019-05-03T01:44:42.615Z,35.13
2019-05-03T01:47:32.554Z,35.68
2019-05-03T01:50:15.060Z,32.00
2019-05-03T01:52:45.571Z,34.35
2019-05-03T01:55:16.021Z,32.75
2019-05-03T01:57:44.899Z,36.23
2019-05-03T02:00:15.362Z,29.82
2019-05-03T02:02:45.483Z,34.27
2019-05-03T02:05:32.160Z,32.67
2019-05-03T02:08:02.061Z,28.70
2019-05-03T02:10:32.205Z,31.15
2019-05-03T02:13:01.673Z,34.53
2019-05-03T02:15:32.564Z,33.25
2019-05-03T02:18:02.768Z,31.10
2019-05-03T02:20:32.386Z,34.25
2019-05-03T02:23:02.802Z,31.80
2019-05-03T02:25:32.367Z,30.88
2019-05-03T02:28:01.910Z,34.63
2019-05-03T02:30:33.136Z,33.55
2019-05-03T02:33:03.936Z,28.35
2019-05-03T02:35:33.352Z,32.63
2019-05-03T02:38:03.715Z,32.90
2019-05-03T02:40:33.868Z,31.05
2019-05-03T02:43:07.180Z,28.50
2019-05-03T02:45:37.811Z,35.25
2019-05-03T02:48:11.524Z,30.82
2019-05-03T02:50:40.413Z,30.60
2019-05-03T02:53:08.967Z,34.60
2019-05-03T02:55:37.489Z,35.30
2019-05-03T02:58:06.047Z,36.10
2019-05-03T03:00:49.608Z,35.03
2019-05-03T03:03:18.234Z,38.25
2019-05-03T03:05:47.817Z,42.03
2019-05-03T03:08:19.808Z,43.73
2019-05-03T03:10:48.787Z,50.08
2019-05-03T03:13:17.780Z,51.98
2019-05-03T03:15:47.371Z,52.55
2019-05-03T03:18:16.776Z,53.63
2019-05-03T03:20:47.621Z,57.80
2019-05-03T03:23:18.671Z,56.28
2019-05-03T03:25:49.395Z,51.10
2019-05-03T03:28:21.522Z,63.70
2019-05-03T03:31:01.769Z,55.48
2019-05-03T03:33:30.848Z,52.27
2019-05-03T03:36:29.312Z,59.20
2019-05-03T03:38:29.840Z,78.00
2019-05-03T03:40:58.970Z,60.80
2019-05-03T03:43:28.427Z,57.48
2019-05-03T03:45:58.319Z,62.45
2019-05-03T03:48:27.239Z,73.65
2019-05-03T03:50:56.355Z,70.92
2019-05-03T03:53:26.794Z,64.50
2019-05-03T03:55:56.921Z,59.35
2019-05-03T03:58:27.089Z,57.33
2019-05-03T04:00:55.932Z,57.27
2019-05-03T04:03:26.048Z,49.35
2019-05-03T04:05:55.582Z,59.63
2019-05-03T04:08:25.184Z,52.03
2019-05-03T04:10:55.823Z,45.73
2019-05-03T04:13:25.520Z,42.93
2019-05-03T04:16:08.643Z,39.13
2019-05-03T04:18:51.356Z,33.23
2019-05-03T04:21:20.148Z,26.62
2019-05-03T04:23:49.691Z,25.08
2019-05-03T04:26:18.151Z,21.60
2019-05-03T04:28:48.630Z,21.85
2019-05-03T04:31:17.174Z,21.77
2019-05-03T04:33:46.178Z,27.07
2019-05-03T04:36:15.973Z,25.30
2019-05-03T04:38:45.332Z,27.45
2019-05-03T04:41:15.868Z,24.98
2019-05-03T04:43:45.997Z,24.50
2019-05-03T04:46:16.571Z,22.02
2019-05-03T04:48:45.255Z,25.15
2019-05-03T04:51:16.520Z,23.10
2019-05-03T04:53:45.627Z,24.80
2019-05-03T04:56:16.908Z,24.27
2019-05-03T04:58:45.888Z,21.80
2019-05-03T05:01:15.839Z,21.93
2019-05-03T05:03:47.246Z,20.75
2019-05-03T05:06:16.130Z,20.10
2019-05-03T05:08:46.117Z,17.48
2019-05-03T05:11:15.831Z,17.90
2019-05-03T05:13:45.699Z,20.48
2019-05-03T05:16:16.048Z,17.77
2019-05-03T05:18:46.337Z,16.82
2019-05-03T05:21:16.455Z,16.45
2019-05-03T05:23:59.551Z,17.65
2019-05-03T05:26:29.735Z,17.17
2019-05-03T05:29:09.082Z,16.80
2019-05-03T05:31:37.620Z,18.90
2019-05-03T05:34:08.866Z,17.20
2019-05-03T05:36:37.756Z,15.93
2019-05-03T05:39:08.570Z,13.18
2019-05-03T05:41:37.399Z,11.83
2019-05-03T05:44:05.851Z,14.47
2019-05-03T05:46:35.961Z,11.95
2019-05-03T05:49:06.427Z,14.05
2019-05-03T05:51:35.352Z,15.08
2019-05-03T05:54:05.248Z,13.40
2019-05-03T05:56:35.779Z,12.88
2019-05-03T05:59:12.177Z,12.70
2019-05-03T06:01:45.718Z,9.18
2019-05-03T06:04:15.766Z,12.82
2019-05-03T06:06:45.877Z,12.78
2019-05-03T06:09:21.951Z,11.10
2019-05-03T06:11:58.070Z,8.40
2019-05-03T06:14:31.195Z,12.73
2019-05-03T06:17:05.483Z,9.78
2019-05-03T06:19:39.020Z,10.98
2019-05-03T06:22:21.423Z,15.28
2019-05-03T06:24:54.424Z,10.25
2019-05-03T06:27:24.948Z,11.25
2019-05-03T06:29:55.359Z,10.40
2019-05-03T06:32:27.138Z,11.55
2019-05-03T06:34:55.583Z,11.40
2019-05-03T06:37:28.603Z,9.25
2019-05-03T06:39:57.051Z,19.12
2019-05-03T06:42:29.172Z,10.40
2019-05-03T06:44:59.710Z,14.05
2019-05-03T06:47:28.605Z,13.98
2019-05-03T06:49:57.496Z,11.45
2019-05-03T06:52:29.344Z,12.73
2019-05-03T06:55:00.478Z,12.45
2019-05-03T06:57:26.579Z,14.93
2019-05-03T06:59:56.687Z,12.55
2019-05-03T07:02:41.894Z,11.80
2019-05-03T07:05:12.551Z,8.43
2019-05-03T07:07:44.446Z,11.30
2019-05-03T07:12:57.839Z,12.82
2019-05-03T07:15:26.726Z,10.13
2019-05-03T07:17:55.735Z,9.68
2019-05-03T07:20:25.541Z,8.05
2019-05-03T07:22:55.945Z,10.28
2019-05-03T07:25:25.584Z,9.70
2019-05-03T07:27:55.488Z,9.73
2019-05-03T07:30:24.872Z,12.73
2019-05-03T07:32:55.143Z,12.63
2019-05-03T07:35:25.174Z,10.43
2019-05-03T07:37:55.361Z,9.10
2019-05-03T07:40:25.231Z,13.68
2019-05-03T07:42:55.452Z,13.53
2019-05-03T07:45:25.426Z,8.33
2019-05-03T07:47:55.857Z,10.38
2019-05-03T07:50:26.088Z,12.68
2019-05-03T07:52:55.559Z,10.25
2019-05-03T07:55:42.573Z,11.83
2019-05-03T07:58:14.476Z,11.20
2019-05-03T08:00:44.750Z,11.50
2019-05-03T08:03:15.315Z,12.00
2019-05-03T08:05:45.471Z,14.90
2019-05-03T08:08:14.913Z,11.45
2019-05-03T08:10:45.155Z,13.60
2019-05-03T08:13:15.171Z,12.20
2019-05-03T08:15:45.171Z,15.05
2019-05-03T08:18:15.345Z,13.75
2019-05-03T08:20:45.396Z,16.52
2019-05-03T08:23:26.312Z,15.65
2019-05-03T08:25:44.790Z,16.15
2019-05-03T08:28:14.669Z,14.13
2019-05-03T08:30:45.268Z,14.45
2019-05-03T08:33:27.379Z,15.15
2019-05-03T08:35:56.314Z,14.68
2019-05-03T08:38:25.763Z,16.00
2019-05-03T08:40:56.803Z,12.68
2019-05-03T08:43:25.633Z,15.63
2019-05-03T08:45:55.403Z,13.98
2019-05-03T08:48:24.972Z,16.95
2019-05-03T08:50:55.435Z,16.87
2019-05-03T08:53:25.636Z,12.05
2019-05-03T08:55:55.261Z,14.87
2019-05-03T08:58:25.597Z,16.30
2019-05-03T09:00:55.590Z,15.43
2019-05-03T09:03:24.926Z,18.50
2019-05-03T09:05:56.363Z,15.83
2019-05-03T09:08:24.850Z,10.95
2019-05-03T09:10:55.151Z,11.57
2019-05-03T09:13:25.129Z,12.40
2019-05-03T09:15:55.238Z,8.78
2019-05-03T09:18:25.779Z,5.95
2019-05-03T09:20:55.796Z,9.65
2019-05-03T09:23:26.032Z,9.48
2019-05-03T09:25:55.068Z,9.90
2019-05-03T09:28:25.708Z,5.62
2019-05-03T09:30:55.264Z,9.48
2019-05-03T09:33:24.899Z,8.30
2019-05-03T09:35:54.972Z,12.50
2019-05-03T09:38:25.517Z,11.55
2019-05-03T09:40:54.764Z,10.53
2019-05-03T09:43:25.047Z,19.00
2019-05-03T09:45:54.666Z,10.98
2019-05-03T09:48:25.506Z,10.35
2019-05-03T09:50:55.652Z,13.85
2019-05-03T09:53:25.749Z,6.87
2019-05-03T09:55:55.506Z,7.05
2019-05-03T09:58:26.203Z,12.07
2019-05-03T10:00:55.712Z,7.22
2019-05-03T10:03:24.252Z,9.20
2019-05-03T10:05:55.224Z,13.53
2019-05-03T10:08:25.254Z,9.35
2019-05-03T10:11:11.572Z,10.50
2019-05-03T10:13:42.014Z,9.65
2019-05-03T10:16:10.291Z,10.88
2019-05-03T10:18:38.830Z,6.58
2019-05-03T10:21:08.343Z,11.28
2019-05-03T10:23:38.516Z,17.50
2019-05-03T10:26:07.405Z,19.37
2019-05-03T10:28:35.944Z,9.83
2019-05-03T10:31:07.468Z,10.80
2019-05-03T10:33:48.664Z,6.97
2019-05-03T10:36:17.557Z,12.47
2019-05-03T10:38:46.325Z,5.55
2019-05-03T10:41:15.698Z,9.30
2019-05-03T10:43:45.137Z,9.35
2019-05-03T10:46:15.969Z,9.20
2019-05-03T10:48:45.264Z,7.78
2019-05-03T10:51:15.777Z,9.85
2019-05-03T10:53:45.819Z,5.92
2019-05-03T10:56:22.646Z,9.33
2019-05-03T10:58:50.706Z,10.50
2019-05-03T11:01:21.994Z,10.68
2019-05-03T11:03:50.471Z,14.28
2019-05-03T11:06:19.240Z,7.67
2019-05-03T11:08:47.791Z,15.75
2019-05-03T11:11:16.613Z,8.33
2019-05-03T11:13:45.074Z,9.63
2019-05-03T11:16:14.820Z,6.78
2019-05-03T11:18:45.447Z,8.05
2019-05-03T11:21:14.409Z,18.90
2019-05-03T11:23:45.029Z,9.25
2019-05-03T11:26:14.071Z,11.78
2019-05-03T11:28:44.724Z,9.13
2019-05-03T11:31:30.707Z,12.30
2019-05-03T11:34:00.822Z,10.15
2019-05-03T11:36:36.633Z,12.60
2019-05-03T11:39:07.511Z,11.15
2019-05-03T11:41:38.763Z,8.23
2019-05-03T11:44:25.384Z,10.15
2019-05-03T11:46:55.119Z,7.67
2019-05-03T11:49:25.456Z,8.53
2019-05-03T11:51:55.704Z,6.70
2019-05-03T11:54:25.031Z,7.65
2019-05-03T11:56:55.463Z,10.70
2019-05-03T11:59:25.553Z,8.28
2019-05-03T12:02:12.643Z,8.55
2019-05-03T12:04:41.371Z,10.08
2019-05-03T12:07:09.824Z,9.75
2019-05-03T12:09:38.568Z,9.55
2019-05-03T12:12:10.327Z,5.55
2019-05-03T12:14:38.800Z,28.77
2019-05-03T12:17:19.531Z,6.97
2019-05-03T12:19:43.392Z,10.10
2019-05-03T12:22:16.565Z,14.13
2019-05-03T12:24:46.521Z,4.45
2019-05-03T12:27:15.674Z,6.55
2019-05-03T12:29:44.829Z,9.63
2019-05-03T12:32:14.436Z,11.43
2019-05-03T12:34:43.477Z,9.50
2019-05-03T12:37:12.276Z,10.60
2019-05-03T12:39:40.996Z,11.43
2019-05-03T12:42:10.031Z,7.92
2019-05-03T12:44:38.479Z,7.15
2019-05-03T12:47:06.974Z,10.55
2019-05-03T12:49:36.088Z,10.45
2019-05-03T12:52:05.528Z,8.30
2019-05-03T12:54:35.598Z,8.88
2019-05-03T12:57:05.217Z,7.47
2019-05-03T12:59:52.123Z,8.70
2019-05-03T13:02:24.853Z,9.93
2019-05-03T13:04:55.290Z,6.37
2019-05-03T13:07:40.435Z,8.80
2019-05-03T13:10:09.128Z,8.88
2019-05-03T13:12:49.860Z,46.23
2019-05-03T13:15:09.704Z,11.68
2019-05-03T13:17:38.259Z,10.43
2019-05-03T13:20:12.642Z,9.95
2019-05-03T13:22:42.332Z,10.50
2019-05-03T13:25:13.067Z,11.55
2019-05-03T13:27:41.963Z,9.33
2019-05-03T13:30:11.064Z,10.38
2019-05-03T13:32:39.535Z,12.13
2019-05-03T13:35:08.629Z,7.78
2019-05-03T13:37:37.429Z,10.13
2019-05-03T13:40:09.412Z,11.65
2019-05-03T13:42:38.299Z,7.83
2019-05-03T13:45:08.011Z,11.08
2019-05-03T13:47:36.484Z,9.93
2019-05-03T13:50:08.187Z,6.90
2019-05-03T13:52:36.955Z,7.70
2019-05-03T13:55:06.971Z,9.13
2019-05-03T13:57:35.524Z,9.00
2019-05-03T14:00:09.051Z,9.83
2019-05-03T14:02:38.881Z,10.50
2019-05-03T14:05:07.479Z,10.53
2019-05-03T14:07:36.255Z,15.75
2019-05-03T14:10:08.696Z,14.28
2019-05-03T14:12:37.527Z,11.88
2019-05-03T14:15:08.379Z,11.15
2019-05-03T14:17:36.937Z,9.35
2019-05-03T14:20:09.012Z,10.28
2019-05-03T14:22:40.475Z,12.13
2019-05-03T14:25:09.076Z,11.20
2019-05-03T14:27:37.622Z,10.30
2019-05-03T14:30:07.889Z,9.43
2019-05-03T14:32:36.773Z,13.72
2019-05-03T14:35:06.562Z,10.43
2019-05-03T14:37:37.823Z,10.78
2019-05-03T14:40:08.015Z,7.30
2019-05-03T14:42:36.487Z,11.83
2019-05-03T14:45:08.011Z,9.78
2019-05-03T14:47:36.479Z,9.80
2019-05-03T14:50:06.401Z,6.30
2019-05-03T14:52:35.308Z,12.95
2019-05-03T14:55:07.901Z,9.38
2019-05-03T14:57:40.715Z,9.50
2019-05-03T15:00:11.158Z,9.93
2019-05-03T15:02:50.764Z,7.70
2019-05-03T15:05:16.127Z,7.78
2019-05-03T15:07:45.897Z,10.08
2019-05-03T15:10:15.098Z,7.55
2019-05-03T15:12:46.605Z,7.00
2019-05-03T15:15:15.585Z,11.35
2019-05-03T15:17:45.731Z,9.60
2019-05-03T15:20:14.931Z,7.80
2019-05-03T15:22:45.284Z,11.03
2019-05-03T15:25:14.481Z,10.20
2019-05-03T15:27:44.817Z,6.67
2019-05-03T15:30:15.592Z,7.87
2019-05-03T15:32:56.640Z,11.30
2019-05-03T15:35:17.663Z,10.48
2019-05-03T15:37:46.523Z,12.82
2019-05-03T15:40:15.698Z,11.63
2019-05-03T15:42:46.357Z,10.53
2019-05-03T15:45:19.558Z,10.35
2019-05-03T15:47:58.625Z,8.03
2019-05-03T15:50:27.105Z,9.80
2019-05-03T15:52:57.087Z,7.00
2019-05-03T15:55:25.555Z,8.95
2019-05-03T15:57:55.274Z,9.95
2019-05-03T16:00:24.513Z,11.10
2019-05-03T16:02:54.691Z,9.38
2019-05-03T16:05:24.926Z,10.10
2019-05-03T16:07:55.286Z,12.40
2019-05-03T16:10:24.959Z,6.67
2019-05-03T16:12:54.723Z,10.95
2019-05-03T16:15:24.597Z,12.03
2019-05-03T16:17:54.704Z,9.95
2019-05-03T16:20:24.977Z,12.25
2019-05-03T16:22:54.477Z,11.68
2019-05-03T16:25:25.090Z,12.50
2019-05-03T16:28:04.809Z,10.70
2019-05-03T16:30:45.437Z,12.33
2019-05-03T16:33:26.593Z,9.70
2019-05-03T16:35:45.960Z,12.90
2019-05-03T16:38:15.697Z,9.33
2019-05-03T16:40:45.136Z,9.95
2019-05-03T16:43:15.995Z,9.83
2019-05-03T16:45:44.582Z,12.15
2019-05-03T16:48:15.403Z,11.68
2019-05-03T16:50:45.204Z,11.12
2019-05-03T16:53:14.793Z,8.58
2019-05-03T16:55:44.340Z,13.30
2019-05-03T16:58:16.467Z,10.90
2019-05-03T17:00:44.746Z,8.90
2019-05-03T17:03:15.045Z,9.98
2019-05-03T17:05:45.504Z,11.28
2019-05-03T17:08:31.819Z,6.87
2019-05-03T17:11:08.363Z,4.30
2019-05-03T17:13:38.494Z,7.08
2019-05-03T17:16:07.044Z,10.10
2019-05-03T17:18:35.644Z,10.98
2019-05-03T17:21:05.712Z,12.07
2019-05-03T17:23:35.306Z,11.25
2019-05-03T17:26:04.395Z,10.98
2019-05-03T17:28:35.179Z,7.67
2019-05-03T17:31:04.543Z,8.28
2019-05-03T17:33:54.491Z,12.07
2019-05-03T17:36:24.913Z,12.60
2019-05-03T17:38:56.103Z,10.55
2019-05-03T17:41:42.707Z,10.93
2019-05-03T17:44:14.404Z,5.55
2019-05-03T17:46:45.271Z,10.00
2019-05-03T17:49:14.747Z,9.73
2019-05-03T17:52:04.842Z,10.53
2019-05-03T17:54:36.324Z,8.08
2019-05-03T17:57:21.804Z,10.85
2019-05-03T18:00:01.023Z,10.95
2019-05-03T18:02:34.118Z,9.55
2019-05-03T18:05:20.515Z,7.85
2019-05-03T18:08:07.528Z,9.83
2019-05-03T18:10:37.655Z,10.90
2019-05-03T18:13:06.548Z,8.43
2019-05-03T18:15:35.239Z,11.65
2019-05-03T18:18:05.280Z,8.35
2019-05-03T18:20:34.615Z,10.43
2019-05-03T18:23:04.977Z,9.45
2019-05-03T18:25:35.349Z,11.93
2019-05-03T18:28:04.319Z,18.87
2019-05-03T18:30:34.499Z,9.63
2019-05-03T18:33:04.737Z,8.60
2019-05-03T18:35:33.128Z,9.00
2019-05-03T18:38:01.939Z,9.20
2019-05-03T18:40:31.763Z,11.45
2019-05-03T18:43:01.859Z,10.05
2019-05-03T18:45:46.994Z,9.05
2019-05-03T18:48:15.455Z,8.23
2019-05-03T18:50:45.559Z,10.90
2019-05-03T18:53:15.068Z,10.28
2019-05-03T18:55:44.467Z,8.75
2019-05-03T18:58:14.755Z,10.88
2019-05-03T19:00:43.695Z,11.38
2019-05-03T19:03:12.141Z,8.58
2019-05-03T19:05:42.255Z,12.50
2019-05-03T19:08:12.838Z,11.65
2019-05-03T19:10:44.526Z,9.90
2019-05-03T19:13:17.255Z,8.25
2019-05-03T19:15:45.719Z,9.20
2019-05-03T19:18:30.830Z,7.08
2019-05-03T19:20:59.295Z,10.72
2019-05-03T19:23:27.743Z,7.45
2019-05-03T19:25:56.487Z,8.85
2019-05-03T19:28:26.515Z,11.22
2019-05-03T19:30:55.627Z,14.47
2019-05-03T19:33:24.138Z,10.23
2019-05-03T19:35:52.602Z,9.98
2019-05-03T19:38:21.376Z,13.72
2019-05-03T19:40:49.910Z,9.28
2019-05-03T19:43:18.371Z,10.72
2019-05-03T19:45:46.911Z,12.63
2019-05-03T19:48:17.008Z,9.75
2019-05-03T19:50:45.608Z,14.45
2019-05-03T19:53:18.350Z,10.13
2019-05-03T19:55:50.380Z,12.30
2019-05-03T19:58:18.597Z,13.60
2019-05-03T20:01:05.705Z,13.22
2019-05-03T20:03:38.907Z,12.85
2019-05-03T20:06:25.220Z,14.15
2019-05-03T20:09:10.843Z,16.10
2019-05-03T20:11:39.643Z,14.03
2019-05-03T20:14:08.092Z,11.78
2019-05-03T20:16:37.848Z,13.78
2019-05-03T20:19:17.740Z,14.15
2019-05-03T20:21:37.172Z,14.60
2019-05-03T20:24:06.083Z,18.57
2019-05-03T20:26:34.966Z,18.30
2019-05-03T20:29:03.482Z,21.95
2019-05-03T20:31:31.951Z,13.10
2019-05-03T20:34:00.404Z,12.65
2019-05-03T20:36:29.203Z,15.00
2019-05-03T20:38:57.656Z,12.63
2019-05-03T20:41:27.564Z,15.72
2019-05-03T20:43:58.247Z,15.00
2019-05-03T20:46:32.160Z,15.80
2019-05-03T20:49:04.329Z,16.27
2019-05-03T20:51:34.428Z,15.30
2019-05-03T20:54:04.804Z,12.30
2019-05-03T20:56:34.121Z,17.02
2019-05-03T20:59:02.596Z,15.63
2019-05-03T21:01:31.117Z,20.12
2019-05-03T21:03:59.748Z,17.60
2019-05-03T21:06:35.406Z,17.25
2019-05-03T21:08:58.391Z,14.05
2019-05-03T21:11:26.843Z,14.53
2019-05-03T21:13:55.638Z,18.15
2019-05-03T21:16:29.019Z,16.70
2019-05-03T21:19:02.011Z,17.00
2019-05-03T21:21:44.538Z,17.05
2019-05-03T21:24:15.017Z,17.62
2019-05-03T21:26:45.161Z,18.77
2019-05-03T21:29:15.168Z,17.55
2019-05-03T21:31:44.507Z,17.17
2019-05-03T21:34:14.790Z,25.12
2019-05-03T21:36:45.301Z,14.70
2019-05-03T21:39:14.658Z,19.07
2019-05-03T21:41:45.037Z,19.30
2019-05-03T21:44:15.683Z,18.42
2019-05-03T21:46:45.774Z,22.87
2019-05-03T21:49:15.879Z,23.32
2019-05-03T21:52:04.588Z,21.77
2019-05-03T21:54:34.646Z,22.20
2019-05-03T21:57:03.243Z,18.73
2019-05-03T21:59:31.715Z,15.10
2019-05-03T22:02:02.051Z,14.98
2019-05-03T22:04:30.519Z,19.75
2019-05-03T22:06:58.966Z,16.12
2019-05-03T22:09:27.711Z,16.60
2019-05-03T22:11:56.813Z,16.77
2019-05-03T22:14:45.384Z,20.32
2019-05-03T22:17:31.547Z,20.30
2019-05-03T22:20:01.929Z,20.17
2019-05-03T22:22:32.087Z,16.90
2019-05-03T22:25:04.615Z,16.93
2019-05-03T22:27:40.424Z,19.42
2019-05-03T22:30:10.162Z,17.90
2019-05-03T22:32:38.612Z,15.05
2019-05-03T22:35:10.083Z,16.27
2019-05-03T22:37:38.876Z,15.48
2019-05-03T22:40:07.880Z,15.43
2019-05-03T22:42:36.663Z,18.07
2019-05-03T22:45:06.670Z,22.80
2019-05-03T22:47:35.810Z,17.90
2019-05-03T22:50:05.493Z,17.98
2019-05-03T22:52:34.971Z,15.93
2019-05-03T22:55:06.666Z,18.02
2019-05-03T22:57:35.560Z,21.27
2019-05-03T23:00:07.527Z,18.25
2019-05-03T23:02:36.316Z,17.07
2019-05-03T23:05:05.923Z,18.17
2019-05-03T23:07:37.244Z,20.57
2019-05-03T23:10:07.030Z,19.48
2019-05-03T23:12:35.482Z,19.17
2019-05-03T23:15:07.091Z,16.52
2019-05-03T23:17:35.539Z,19.95
2019-05-03T23:20:15.024Z,16.10
2019-05-03T23:22:45.473Z,21.02
2019-05-03T23:25:14.393Z,16.52
2019-05-03T23:27:44.495Z,17.60
2019-05-03T23:30:15.355Z,17.77
2019-05-03T23:32:45.301Z,16.95
2019-05-03T23:35:14.267Z,19.45
2019-05-03T23:37:44.898Z,17.07
2019-05-03T23:40:14.807Z,17.37
2019-05-03T23:42:43.716Z,16.80
2019-05-03T23:45:12.303Z,16.62
2019-05-03T23:47:45.257Z,18.10
2019-05-03T23:50:17.362Z,18.25
2019-05-03T23:52:46.255Z,21.60
2019-05-03T23:55:25.106Z,19.80
2019-05-03T23:57:55.269Z,21.20
